X  Fermer Données météorologiques d'aviation de Metar     LIPX Verona-Villafranca Valerio Catullo Airport
Température
1°C Température
-1°C Point de rosée
87% Humidité



Vitesse
2 KM/H
1 MPH
0 M/S
1 KTS



Calme
Nord
Conditions actuelles

Claire Claire
Pression 1015.92 (hPa) - 30 (inHg)
Visibilité 6.2 (mile) - 10 (km)
Aéroport
Code de l'aéroport LIPX

Emplacement: Verona-Villafranca Valerio Catullo Airport
Distance: 50 (km)

Metar:
LIPX 302020Z VRB01KT CAVOK 01/M01 Q1016

Temps: 30-01-2023 21:20 CET